Time;durP1;ratioP1;P1;durP2;ratioP2;P2;SDS_P1;SDS_P2;PMS_P1;PMS_P2;Temp;Humidity;BMP_temperature;BMP_pressure;BME280_temperature;BME280_humidity;BME280_pressure;Samples;Min_cycle;Max_cycle;Signal;HPM_P1;HPM_P2
2022/09/10 00:01:58;;;;;;;2.10;0.77;;;17.40;99.90;;;;;;5002043;28;20058;-79
2022/09/10 00:04:26;;;;;;;2.22;0.90;;;17.40;99.90;;;;;;5004649;28;20520;-78
2022/09/10 00:06:54;;;;;;;2.17;0.75;;;17.40;99.90;;;;;;5004239;28;20444;-78
2022/09/10 00:09:21;;;;;;;3.20;0.88;;;17.50;99.90;;;;;;4992227;28;20046;-79
2022/09/10 00:11:48;;;;;;;1.92;0.40;;;17.40;99.90;;;;;;5005569;28;20046;-78
2022/09/10 00:14:21;;;;;;;3.05;0.40;;;17.50;99.90;;;;;;4993279;28;20512;-79
2022/09/10 00:16:48;;;;;;;2.28;0.65;;;17.50;99.90;;;;;;5007502;28;20057;-78
2022/09/10 00:19:16;;;;;;;1.48;0.40;;;17.50;99.90;;;;;;5010021;28;20535;-78
2022/09/10 00:21:43;;;;;;;2.10;0.43;;;17.50;99.90;;;;;;5001395;28;20047;-79
2022/09/10 00:24:10;;;;;;;3.30;0.73;;;17.50;99.90;;;;;;5010469;28;20053;-79
2022/09/10 00:26:38;;;;;;;2.88;0.60;;;17.50;99.90;;;;;;5002374;28;20141;-80
2022/09/10 00:29:08;;;;;;;4.00;0.70;;;17.50;99.90;;;;;;4996734;28;20505;-79
2022/09/10 00:31:35;;;;;;;1.50;0.40;;;17.50;99.90;;;;;;5006099;28;20415;-79
2022/09/10 00:34:03;;;;;;;4.43;0.70;;;17.50;99.90;;;;;;4997384;28;20295;-79
2022/09/10 00:36:34;;;;;;;1.65;0.80;;;17.50;99.90;;;;;;5000660;28;20057;-80
2022/09/10 00:39:04;;;;;;;2.45;0.75;;;17.50;99.90;;;;;;5000985;28;20047;-78
2022/09/10 00:41:32;;;;;;;2.33;0.55;;;17.50;99.90;;;;;;5000023;28;20415;-78
2022/09/10 00:44:01;;;;;;;1.65;0.50;;;17.50;99.90;;;;;;5004086;28;20643;-79
2022/09/10 00:46:49;;;;;;;1.75;0.50;;;17.50;99.90;;;;;;4996282;28;20050;-79
2022/09/10 00:49:25;;;;;;;1.70;0.50;;;17.60;99.90;;;;;;5002017;28;20064;-79
2022/09/10 00:51:53;;;;;;;2.22;0.40;;;17.60;99.90;;;;;;5004123;28;20124;-80
2022/09/10 00:54:23;;;;;;;3.92;0.60;;;17.60;99.90;;;;;;5007837;28;20046;-81
2022/09/10 00:56:52;;;;;;;21.95;1.33;;;17.60;99.90;;;;;;5002871;28;20049;-79
2022/09/10 00:59:21;;;;;;;2.78;0.40;;;17.60;99.90;;;;;;5007472;28;20046;-79
2022/09/10 01:01:48;;;;;;;0.98;0.40;;;17.60;99.90;;;;;;5007118;28;20207;-78
2022/09/10 01:04:15;;;;;;;0.35;0.28;;;17.60;99.90;;;;;;5002963;28;20046;-81
2022/09/10 01:06:44;;;;;;;3.67;0.50;;;17.60;99.90;;;;;;5008792;28;20045;-77
2022/09/10 01:09:12;;;;;;;4.22;1.00;;;17.60;99.90;;;;;;5002045;28;20065;-79
2022/09/10 01:12:18;;;;;;;3.47;0.70;;;17.60;99.90;;;;;;5005802;28;20423;-79
2022/09/10 01:15:09;;;;;;;2.80;0.57;;;17.60;99.90;;;;;;5010115;28;20054;-79
2022/09/10 01:17:57;;;;;;;3.30;0.50;;;17.70;99.90;;;;;;5009872;28;20046;-80
2022/09/10 01:20:51;;;;;;;2.83;0.50;;;17.60;99.90;;;;;;5001119;28;20054;-81
2022/09/10 01:23:42;;;;;;;2.58;0.68;;;17.60;99.90;;;;;;5011880;28;20054;-78
2022/09/10 01:26:50;;;;;;;3.80;0.85;;;17.60;99.90;;;;;;5018864;28;20057;-79
2022/09/10 01:29:25;;;;;;;4.18;1.50;;;17.60;99.90;;;;;;5007613;28;20053;-80
2022/09/10 01:32:19;;;;;;;16.95;1.38;;;17.60;99.90;;;;;;5007583;28;20053;-79
2022/09/10 01:35:01;;;;;;;4.07;0.98;;;17.60;99.90;;;;;;5012334;28;20049;-78
2022/09/10 01:37:34;;;;;;;3.20;0.85;;;17.50;99.90;;;;;;5007354;28;20060;-78
2022/09/10 01:40:02;;;;;;;4.43;0.70;;;17.50;99.90;;;;;;5013626;28;20428;-81
2022/09/10 01:42:30;;;;;;;3.80;1.00;;;17.50;99.90;;;;;;5012110;28;20113;-81
2022/09/10 01:44:57;;;;;;;2.90;0.68;;;17.50;99.90;;;;;;4999784;28;20062;-78
2022/09/10 01:47:53;;;;;;;2.88;0.70;;;17.50;99.90;;;;;;5009588;28;20126;-81
2022/09/10 01:50:55;;;;;;;4.07;1.13;;;17.50;99.90;;;;;;5000990;28;20511;-80
2022/09/10 01:53:29;;;;;;;4.88;0.77;;;17.40;99.90;;;;;;5010325;28;20054;-80
2022/09/10 01:56:08;;;;;;;3.33;0.50;;;17.40;99.90;;;;;;5000806;28;20050;-79
2022/09/10 01:58:39;;;;;;;4.28;0.60;;;17.40;99.90;;;;;;4999411;28;20133;-80
2022/09/10 02:01:19;;;;;;;2.53;1.08;;;17.40;99.90;;;;;;5002628;28;20050;-81
2022/09/10 02:03:49;;;;;;;4.17;1.10;;;17.40;99.90;;;;;;5010454;28;20061;-79
2022/09/10 02:06:18;;;;;;;;;;;17.40;99.90;;;;;;5005325;28;20316;-79
2022/09/10 02:08:48;;;;;;;3.83;0.70;;;17.30;99.90;;;;;;5012260;28;20383;-79
2022/09/10 02:11:15;;;;;;;1.95;0.70;;;17.30;99.90;;;;;;5007723;28;20050;-80
2022/09/10 02:13:41;;;;;;;2.15;0.80;;;17.30;99.90;;;;;;5000146;28;20050;-79
2022/09/10 02:16:12;;;;;;;5.13;0.77;;;17.30;99.90;;;;;;5010666;28;20054;-79
2022/09/10 02:18:41;;;;;;;2.75;0.50;;;17.30;99.90;;;;;;5010508;28;20186;-80
2022/09/10 02:21:10;;;;;;;1.27;0.45;;;17.20;99.90;;;;;;5003644;28;20049;-80
2022/09/10 02:23:43;;;;;;;4.03;0.70;;;17.20;99.90;;;;;;5006617;28;20050;-78
2022/09/10 02:26:13;;;;;;;2.20;0.50;;;17.20;99.90;;;;;;5003164;28;20091;-79
2022/09/10 02:28:42;;;;;;;1.33;0.50;;;17.20;99.90;;;;;;5007257;28;20049;-79
2022/09/10 02:31:09;;;;;;;4.07;0.70;;;17.10;99.90;;;;;;4997850;28;20432;-78
2022/09/10 02:33:36;;;;;;;1.77;0.52;;;17.20;99.90;;;;;;5005762;28;20050;-82
2022/09/10 02:36:02;;;;;;;3.25;1.00;;;17.20;99.90;;;;;;5002583;28;20046;-79
2022/09/10 02:38:29;;;;;;;4.18;0.50;;;17.10;99.90;;;;;;5004552;28;20049;-80
2022/09/10 02:40:58;;;;;;;2.40;0.40;;;17.20;99.90;;;;;;5002490;28;20053;-80
2022/09/10 02:43:28;;;;;;;2.10;0.52;;;17.20;99.90;;;;;;5000354;28;20050;-80
2022/09/10 02:45:55;;;;;;;;;;;17.10;99.90;;;;;;5008913;28;20046;-78
2022/09/10 02:48:26;;;;;;;1.98;0.60;;;17.10;99.90;;;;;;4998192;28;20016;-81
2022/09/10 02:50:53;;;;;;;;;;;17.10;99.90;;;;;;5000601;28;20046;-80
2022/09/10 02:53:19;;;;;;;4.78;0.65;;;17.00;99.90;;;;;;5005304;28;20298;-79
2022/09/10 02:55:47;;;;;;;5.85;0.85;;;17.10;99.90;;;;;;4993965;28;20050;-79
2022/09/10 02:58:15;;;;;;;1.67;0.55;;;17.00;99.90;;;;;;5002127;28;20781;-79
2022/09/10 03:00:42;;;;;;;2.70;0.50;;;17.00;99.90;;;;;;5008239;28;20057;-80
2022/09/10 03:03:10;;;;;;;3.28;0.60;;;17.00;99.90;;;;;;4998835;28;20081;-80
2022/09/10 03:05:37;;;;;;;2.00;0.60;;;16.90;99.90;;;;;;5007057;28;20412;-80
2022/09/10 03:08:05;;;;;;;2.22;0.80;;;16.90;99.90;;;;;;5010489;28;20050;-78
2022/09/10 03:10:31;;;;;;;3.88;0.43;;;16.90;99.90;;;;;;5003942;28;20046;-79
2022/09/10 03:12:59;;;;;;;1.17;0.50;;;16.90;99.90;;;;;;5010666;28;20049;-78
2022/09/10 03:15:26;;;;;;;1.65;0.70;;;16.90;99.90;;;;;;4999522;28;20130;-79
2022/09/10 03:17:53;;;;;;;2.65;0.60;;;16.90;99.90;;;;;;5002473;28;20050;-79
2022/09/10 03:20:21;;;;;;;4.72;0.60;;;16.90;99.90;;;;;;4999352;28;20147;-79
2022/09/10 03:22:51;;;;;;;3.53;0.60;;;16.90;99.90;;;;;;5010409;28;20443;-84
2022/09/10 03:25:18;;;;;;;2.72;0.43;;;16.90;99.90;;;;;;5016706;28;20106;-84
2022/09/10 03:27:45;;;;;;;1.13;0.50;;;16.90;99.90;;;;;;5026174;28;20038;-82
2022/09/10 03:30:12;;;;;;;3.58;0.57;;;16.90;99.90;;;;;;5022177;28;20065;-84
2022/09/10 03:32:39;;;;;;;3.08;0.73;;;16.90;99.90;;;;;;5017702;28;20126;-79
2022/09/10 03:35:06;;;;;;;4.53;0.60;;;17.00;99.90;;;;;;5026088;28;20038;-81
2022/09/10 03:37:32;;;;;;;1.85;0.50;;;17.00;99.90;;;;;;5026471;28;20046;-81
2022/09/10 03:39:59;;;;;;;3.15;0.70;;;17.00;99.90;;;;;;5001840;28;20056;-79
2022/09/10 03:42:26;;;;;;;5.22;0.75;;;16.90;99.90;;;;;;5008836;28;20050;-79
2022/09/10 03:44:52;;;;;;;3.58;0.93;;;17.00;99.90;;;;;;5015169;28;20050;-79
2022/09/10 03:47:19;;;;;;;1.60;0.60;;;17.00;99.90;;;;;;4992733;28;20516;-79
2022/09/10 03:49:46;;;;;;;2.22;0.73;;;17.00;99.90;;;;;;5003973;28;20052;-80
2022/09/10 03:52:12;;;;;;;2.08;0.63;;;17.00;99.90;;;;;;4999918;28;20053;-79
2022/09/10 03:54:39;;;;;;;4.53;1.00;;;16.90;99.90;;;;;;5003060;28;20056;-78
2022/09/10 03:57:07;;;;;;;2.83;0.52;;;16.90;99.90;;;;;;5001861;28;20049;-79
2022/09/10 03:59:34;;;;;;;2.17;0.70;;;16.90;99.90;;;;;;4997560;28;20050;-79
2022/09/10 04:02:01;;;;;;;3.00;0.88;;;16.90;99.90;;;;;;5005630;28;20050;-80
2022/09/10 04:04:30;;;;;;;5.25;0.90;;;16.90;99.90;;;;;;5002895;28;20105;-78
2022/09/10 04:06:56;;;;;;;8.88;0.90;;;16.90;99.90;;;;;;5001025;28;20061;-81
2022/09/10 04:09:23;;;;;;;9.38;2.35;;;16.90;99.90;;;;;;5002850;28;20050;-80
2022/09/10 04:11:50;;;;;;;2.90;0.80;;;16.80;99.90;;;;;;5002552;28;20108;-79
2022/09/10 04:14:18;;;;;;;3.45;1.60;;;16.80;99.90;;;;;;5002891;28;20050;-81
2022/09/10 04:16:45;;;;;;;4.07;1.10;;;16.80;99.90;;;;;;4998241;28;20054;-80
2022/09/10 04:19:11;;;;;;;4.80;1.35;;;16.90;99.90;;;;;;5005825;28;20050;-80
2022/09/10 04:21:38;;;;;;;1.30;0.75;;;16.90;99.90;;;;;;5003763;28;20061;-80
2022/09/10 04:24:05;;;;;;;4.78;0.70;;;16.90;99.90;;;;;;4995519;28;20052;-76
2022/09/10 04:26:31;;;;;;;2.78;0.70;;;16.90;99.90;;;;;;5005934;28;20057;-77
2022/09/10 04:28:58;;;;;;;2.22;0.70;;;16.90;99.90;;;;;;5005159;28;20053;-78
2022/09/10 04:31:25;;;;;;;2.72;0.80;;;16.90;99.90;;;;;;5008316;28;20401;-79
2022/09/10 04:33:52;;;;;;;3.70;0.88;;;16.80;99.90;;;;;;5004114;28;20050;-79
2022/09/10 04:36:19;;;;;;;3.42;1.08;;;16.80;99.90;;;;;;5010701;28;20053;-80
2022/09/10 04:38:46;;;;;;;4.78;0.90;;;16.80;99.90;;;;;;5002296;28;20050;-79
2022/09/10 04:41:14;;;;;;;1.40;0.60;;;16.80;99.90;;;;;;5004570;28;20503;-79
2022/09/10 04:43:41;;;;;;;3.30;0.68;;;16.90;99.90;;;;;;5005091;28;20507;-79
2022/09/10 04:46:07;;;;;;;3.25;0.60;;;16.80;99.90;;;;;;5001462;28;20050;-77
2022/09/10 04:48:34;;;;;;;4.63;1.00;;;16.80;99.90;;;;;;5014357;28;20050;-78
2022/09/10 04:51:01;;;;;;;7.10;1.00;;;16.70;99.90;;;;;;5008353;28;20060;-78
2022/09/10 04:53:44;;;;;;;3.63;0.80;;;16.70;99.90;;;;;;5009113;28;20688;-79
2022/09/10 04:56:11;;;;;;;1.73;0.70;;;16.70;99.90;;;;;;5003456;28;20081;-78
2022/09/10 04:58:39;;;;;;;4.32;0.80;;;16.70;99.90;;;;;;5006625;28;20427;-78
2022/09/10 05:01:06;;;;;;;2.05;0.80;;;16.70;99.90;;;;;;5006083;28;20054;-78
2022/09/10 05:03:33;;;;;;;3.10;0.90;;;16.70;99.90;;;;;;4996074;28;20478;-78
2022/09/10 05:06:00;;;;;;;6.78;1.05;;;16.70;99.90;;;;;;4995951;28;20054;-79
2022/09/10 05:08:28;;;;;;;5.93;1.25;;;16.70;99.90;;;;;;5005739;28;20046;-79
2022/09/10 05:10:55;;;;;;;3.10;1.00;;;16.60;99.90;;;;;;5011555;28;20053;-80
2022/09/10 05:13:23;;;;;;;9.15;1.02;;;16.60;99.90;;;;;;5011337;28;20056;-80
2022/09/10 05:15:49;;;;;;;3.90;0.80;;;16.60;99.90;;;;;;5004123;28;20053;-79
2022/09/10 05:18:16;;;;;;;4.93;0.85;;;16.70;99.90;;;;;;5006786;28;20051;-77
2022/09/10 05:20:43;;;;;;;3.75;0.90;;;16.70;99.90;;;;;;5001456;28;20050;-81
2022/09/10 05:23:10;;;;;;;3.05;0.80;;;16.70;99.90;;;;;;5006076;28;20050;-79
2022/09/10 05:25:38;;;;;;;5.22;1.05;;;16.70;99.90;;;;;;5001078;28;20464;-80
2022/09/10 05:28:04;;;;;;;3.95;0.90;;;16.60;99.90;;;;;;5007207;28;20428;-78
2022/09/10 05:30:31;;;;;;;2.70;0.95;;;16.60;99.90;;;;;;5004102;28;20042;-79
2022/09/10 05:33:02;;;;;;;6.90;1.20;;;16.60;99.90;;;;;;5000589;28;20080;-78
2022/09/10 05:35:29;;;;;;;2.63;1.40;;;16.60;99.90;;;;;;5004466;28;20420;-77
2022/09/10 05:37:56;;;;;;;4.30;0.88;;;16.70;99.90;;;;;;4998349;28;20058;-81
2022/09/10 05:40:24;;;;;;;3.97;0.80;;;16.70;99.90;;;;;;5006476;28;20045;-79
2022/09/10 05:42:51;;;;;;;3.20;1.20;;;16.60;99.90;;;;;;5001812;28;20088;-79
2022/09/10 05:45:19;;;;;;;4.90;1.15;;;16.60;99.90;;;;;;5007056;28;20046;-80
2022/09/10 05:47:46;;;;;;;4.53;1.33;;;16.60;99.90;;;;;;5004567;28;20046;-78
2022/09/10 05:50:13;;;;;;;9.18;1.02;;;16.60;99.90;;;;;;5010265;28;20129;-79
2022/09/10 05:52:40;;;;;;;3.30;1.38;;;16.60;99.90;;;;;;5008367;28;20508;-79
2022/09/10 05:55:07;;;;;;;4.70;1.13;;;16.50;99.90;;;;;;4999329;28;20053;-80
2022/09/10 05:57:34;;;;;;;4.32;1.23;;;16.50;99.90;;;;;;5008127;28;20519;-77
2022/09/10 06:00:07;;;;;;;9.07;1.30;;;16.60;99.90;;;;;;5002139;28;20050;-80
2022/09/10 06:02:35;;;;;;;5.18;1.05;;;16.60;99.90;;;;;;5002787;28;20075;-79
2022/09/10 06:05:02;;;;;;;4.13;0.90;;;16.60;99.90;;;;;;5010734;28;20061;-80
2022/09/10 06:07:30;;;;;;;3.67;0.90;;;16.60;99.90;;;;;;4998690;28;20050;-78
2022/09/10 06:09:56;;;;;;;8.45;1.15;;;16.60;99.90;;;;;;5008281;28;20049;-79
2022/09/10 06:12:23;;;;;;;4.63;1.10;;;16.60;99.90;;;;;;4994385;28;20043;-80
2022/09/10 06:14:50;;;;;;;3.03;1.00;;;16.60;99.90;;;;;;4994252;28;20070;-80
2022/09/10 06:17:16;;;;;;;2.80;1.00;;;16.60;99.90;;;;;;5002416;28;20049;-79
2022/09/10 06:19:44;;;;;;;6.13;1.00;;;16.60;99.90;;;;;;5015145;28;20050;-78
2022/09/10 06:22:12;;;;;;;6.70;1.42;;;16.60;99.90;;;;;;5009582;28;20488;-80
2022/09/10 06:24:39;;;;;;;3.55;0.90;;;16.60;99.90;;;;;;5008078;28;20062;-79
2022/09/10 06:27:06;;;;;;;4.30;1.08;;;16.70;99.90;;;;;;5007303;28;20047;-77
2022/09/10 06:29:34;;;;;;;6.85;0.95;;;16.70;99.90;;;;;;5000099;28;20459;-80
2022/09/10 06:32:02;;;;;;;2.17;1.02;;;16.70;99.90;;;;;;5005964;28;20050;-79
2022/09/10 06:34:28;;;;;;;3.45;1.15;;;16.70;99.90;;;;;;5010574;28;20053;-79
2022/09/10 06:36:57;;;;;;;3.42;1.30;;;16.70;99.90;;;;;;5000321;28;20060;-78
2022/09/10 06:39:23;;;;;;;4.03;0.88;;;16.70;99.90;;;;;;5007181;28;20137;-79
2022/09/10 06:41:52;;;;;;;5.65;1.20;;;16.70;99.90;;;;;;4997159;28;20088;-79
2022/09/10 06:44:21;;;;;;;6.20;1.05;;;16.60;99.90;;;;;;5008773;28;20065;-79
2022/09/10 06:46:48;;;;;;;7.80;1.00;;;16.60;99.90;;;;;;5000384;28;20058;-80
2022/09/10 06:49:35;;;;;;;3.13;0.95;;;16.60;99.90;;;;;;5021919;23;20429;-77
2022/09/10 06:52:02;;;;;;;5.70;0.98;;;16.60;99.90;;;;;;5003605;28;20042;-77
2022/09/10 06:54:28;;;;;;;6.60;1.38;;;16.60;99.90;;;;;;5009556;28;20049;-77
2022/09/10 06:56:56;;;;;;;4.10;1.33;;;16.60;99.90;;;;;;5005691;28;20555;-77
2022/09/10 06:59:23;;;;;;;4.05;0.95;;;16.60;99.90;;;;;;4996824;28;21768;-77
2022/09/10 07:01:49;;;;;;;3.90;1.00;;;16.60;99.90;;;;;;5005434;28;20071;-77
2022/09/10 07:04:16;;;;;;;4.53;0.88;;;16.60;99.90;;;;;;4999407;28;20058;-77
2022/09/10 07:06:44;;;;;;;5.07;1.08;;;16.60;99.90;;;;;;4999372;28;20046;-77
2022/09/10 07:09:11;;;;;;;4.32;1.10;;;16.60;99.90;;;;;;5003243;28;20050;-76
2022/09/10 07:11:38;;;;;;;7.25;1.35;;;16.70;99.90;;;;;;4995375;28;20043;-77
2022/09/10 07:14:11;;;;;;;7.32;1.20;;;16.70;99.90;;;;;;5006061;28;20080;-77
2022/09/10 07:16:43;;;;;;;6.15;1.20;;;16.70;99.90;;;;;;4997512;28;20055;-76
2022/09/10 07:19:13;;;;;;;2.60;1.25;;;16.60;99.90;;;;;;5006011;28;20050;-77
2022/09/10 07:21:40;;;;;;;3.72;0.80;;;16.60;99.90;;;;;;5000086;28;20050;-77
2022/09/10 07:24:11;;;;;;;3.22;0.90;;;16.70;99.90;;;;;;5002574;28;20472;-77
2022/09/10 07:26:37;;;;;;;3.85;1.25;;;16.60;99.90;;;;;;4992106;28;20054;-77
2022/09/10 07:29:04;;;;;;;4.75;1.10;;;16.70;99.90;;;;;;4992092;28;20058;-76
2022/09/10 07:31:33;;;;;;;6.03;1.48;;;16.70;99.90;;;;;;4996902;28;20046;-77
2022/09/10 07:34:01;;;;;;;6.53;1.13;;;16.60;99.90;;;;;;5006325;28;20424;-76
2022/09/10 07:36:28;;;;;;;5.72;1.40;;;16.60;99.90;;;;;;5009155;28;20069;-77
2022/09/10 07:38:56;;;;;;;3.25;0.95;;;16.60;99.90;;;;;;5000391;28;20057;-77
2022/09/10 07:41:26;;;;;;;3.45;1.20;;;16.70;99.90;;;;;;4999698;28;20057;-77
2022/09/10 07:43:54;;;;;;;5.10;1.27;;;16.70;99.90;;;;;;5003691;28;20144;-76
2022/09/10 07:46:23;;;;;;;8.00;1.45;;;16.70;99.90;;;;;;4995830;28;20057;-77
2022/09/10 07:48:57;;;;;;;4.75;1.42;;;16.80;99.90;;;;;;5006018;28;20050;-77
2022/09/10 07:51:26;;;;;;;5.95;1.35;;;16.90;99.90;;;;;;5004178;28;20050;-76
2022/09/10 07:53:55;;;;;;;7.43;1.42;;;16.90;99.90;;;;;;5002276;28;20050;-77
2022/09/10 07:56:22;;;;;;;5.00;1.17;;;16.80;99.90;;;;;;5005124;28;20051;-77
2022/09/10 07:58:50;;;;;;;5.00;1.10;;;16.80;99.90;;;;;;4999072;28;20459;-77
2022/09/10 08:01:18;;;;;;;5.28;1.13;;;16.80;99.90;;;;;;5001828;28;20050;-76
2022/09/10 08:03:45;;;;;;;5.82;1.08;;;16.80;99.90;;;;;;4999208;28;20081;-76
2022/09/10 08:06:12;;;;;;;3.10;0.70;;;16.80;99.90;;;;;;4998296;28;20061;-77
2022/09/10 08:08:39;;;;;;;3.25;1.05;;;16.90;99.90;;;;;;4999528;28;20555;-78
2022/09/10 08:11:17;;;;;;;5.45;1.08;;;16.90;99.90;;;;;;5000067;28;20078;-77
2022/09/10 08:13:49;;;;;;;3.53;0.90;;;16.90;99.90;;;;;;5001078;28;20046;-77
2022/09/10 08:16:18;;;;;;;5.07;1.27;;;16.90;99.90;;;;;;4996483;28;20038;-77
2022/09/10 08:18:47;;;;;;;3.10;0.88;;;17.00;99.90;;;;;;5005480;28;20395;-77
2022/09/10 08:21:15;;;;;;;2.90;0.90;;;16.90;99.90;;;;;;5002583;28;20046;-76
2022/09/10 08:23:47;;;;;;;2.13;1.00;;;16.90;99.90;;;;;;4999018;28;20500;-77
2022/09/10 08:26:13;;;;;;;7.60;1.10;;;16.90;99.90;;;;;;5001995;28;20121;-77
2022/09/10 08:28:43;;;;;;;5.82;1.00;;;16.80;99.90;;;;;;4997304;28;20053;-77
2022/09/10 08:31:11;;;;;;;2.10;0.93;;;16.80;99.90;;;;;;5000147;28;20046;-77
2022/09/10 08:33:38;;;;;;;5.05;1.00;;;16.80;99.90;;;;;;5001361;28;20096;-77
2022/09/10 08:36:07;;;;;;;2.58;1.00;;;16.80;99.90;;;;;;5000732;28;20057;-77
2022/09/10 08:38:36;;;;;;;4.47;0.80;;;16.90;99.90;;;;;;4998978;28;20050;-77
2022/09/10 08:41:20;;;;;;;5.28;0.90;;;16.80;99.90;;;;;;5001685;28;20411;-77
2022/09/10 08:43:50;;;;;;;3.65;0.90;;;16.80;99.90;;;;;;5000701;28;20389;-77
2022/09/10 08:46:39;;;;;;;4.72;1.00;;;16.80;99.90;;;;;;5002960;28;20511;-77
2022/09/10 08:49:29;;;;;;;4.82;0.88;;;16.90;99.90;;;;;;5001933;28;20045;-76
2022/09/10 08:52:30;;;;;;;5.60;1.17;;;16.90;99.90;;;;;;5003523;28;20057;-77
2022/09/10 08:55:12;;;;;;;5.18;0.82;;;16.90;99.90;;;;;;5000164;28;20115;-77
2022/09/10 08:57:45;;;;;;;3.30;1.02;;;16.90;99.90;;;;;;5000444;28;20058;-77
2022/09/10 09:00:22;;;;;;;3.85;0.80;;;16.90;99.90;;;;;;5004138;28;20054;-77
2022/09/10 09:03:16;;;;;;;2.80;0.90;;;16.90;99.90;;;;;;5000198;28;20141;-77
2022/09/10 09:05:54;;;;;;;3.90;0.90;;;16.80;99.90;;;;;;5001811;28;20050;-77
2022/09/10 09:08:24;;;;;;;4.60;0.80;;;16.80;99.90;;;;;;4999988;28;20050;-77
2022/09/10 09:11:12;;;;;;;4.97;0.90;;;16.80;99.90;;;;;;5004456;28;20054;-77
2022/09/10 09:13:43;;;;;;;5.15;0.95;;;16.80;99.90;;;;;;5006165;28;20042;-77
2022/09/10 09:16:13;;;;;;;3.63;1.15;;;16.90;99.90;;;;;;5006293;28;20049;-77
2022/09/10 09:18:55;;;;;;;5.20;0.98;;;17.00;99.90;;;;;;5005435;28;20046;-77
2022/09/10 09:21:44;;;;;;;5.45;1.17;;;17.00;99.90;;;;;;5005186;28;20057;-77
2022/09/10 09:24:40;;;;;;;2.60;1.37;;;17.10;99.90;;;;;;5007814;28;20046;-76
2022/09/10 09:27:13;;;;;;;4.93;0.95;;;17.10;99.90;;;;;;4999143;28;20313;-78
2022/09/10 09:29:54;;;;;;;1.85;0.90;;;17.20;99.90;;;;;;5005604;28;20420;-77
2022/09/10 09:32:22;;;;;;;4.20;0.85;;;17.20;99.90;;;;;;5000335;28;20042;-76
2022/09/10 09:34:53;;;;;;;3.45;1.38;;;17.30;99.90;;;;;;5004106;28;20424;-77
2022/09/10 09:37:30;;;;;;;4.00;0.93;;;17.40;99.90;;;;;;5005399;28;20126;-77
2022/09/10 09:40:05;;;;;;;3.55;0.82;;;17.40;99.90;;;;;;5005704;28;20945;-79
2022/09/10 09:42:52;;;;;;;5.30;1.05;;;17.50;99.90;;;;;;5007667;28;20204;-76
2022/09/10 09:45:46;;;;;;;4.32;1.02;;;17.60;99.90;;;;;;5000901;28;20050;-77
2022/09/10 09:48:16;;;;;;;4.10;1.00;;;17.60;99.90;;;;;;5005009;28;20093;-77
2022/09/10 09:50:52;;;;;;;;;;;17.70;99.90;;;;;;5007047;28;20412;-78
2022/09/10 09:53:22;;;;;;;3.40;1.13;;;17.70;99.90;;;;;;5004994;28;19929;-77
2022/09/10 09:55:52;;;;;;;;;;;17.80;99.90;;;;;;5004016;28;20048;-77
2022/09/10 09:58:28;;;;;;;3.75;1.05;;;17.90;99.90;;;;;;5005534;28;19921;-78
2022/09/10 10:01:03;;;;;;;4.13;1.30;;;18.00;99.90;;;;;;5002814;28;20057;-76
2022/09/10 10:03:42;;;;;;;4.55;0.77;;;18.10;99.90;;;;;;5005677;28;20057;-78
2022/09/10 10:06:11;;;;;;;5.43;1.02;;;18.20;99.90;;;;;;5008665;28;20057;-78
2022/09/10 10:08:51;;;;;;;4.60;1.17;;;18.40;99.90;;;;;;5006945;28;20050;-77
2022/09/10 10:11:20;;;;;;;4.50;1.02;;;18.40;99.90;;;;;;5006453;28;20038;-77
2022/09/10 10:13:50;;;;;;;5.60;1.50;;;18.50;99.90;;;;;;5003871;28;20415;-77
2022/09/10 10:16:35;;;;;;;6.30;1.27;;;18.50;99.90;;;;;;5003652;28;20073;-77
2022/09/10 10:19:02;;;;;;;4.43;0.77;;;18.60;99.90;;;;;;4999999;28;20039;-77
2022/09/10 10:21:31;;;;;;;4.30;0.70;;;18.70;99.90;;;;;;5002994;28;20050;-76
2022/09/10 10:23:57;;;;;;;4.93;1.15;;;18.80;99.90;;;;;;5000967;28;20048;-77
2022/09/10 10:26:32;;;;;;;6.32;1.13;;;18.90;99.90;;;;;;5008616;28;20057;-76
2022/09/10 10:29:16;;;;;;;4.97;0.80;;;19.00;99.90;;;;;;5006718;28;20045;-76
2022/09/10 10:31:45;;;;;;;1.92;0.70;;;19.00;99.90;;;;;;5005599;28;20052;-76
2022/09/10 10:34:14;;;;;;;2.22;0.80;;;19.00;99.90;;;;;;5010018;28;20052;-77
2022/09/10 10:37:14;;;;;;;3.80;0.93;;;19.10;99.90;;;;;;5010426;28;20053;-76
2022/09/10 10:40:01;;;;;;;;;;;19.10;99.90;;;;;;5009408;28;20048;-77
2022/09/10 10:42:53;;;;;;;6.55;1.02;;;19.10;99.90;;;;;;5001698;28;19929;-78
2022/09/10 10:45:36;;;;;;;5.28;0.73;;;19.10;99.90;;;;;;5003661;28;20048;-77
2022/09/10 10:48:14;;;;;;;6.22;1.10;;;19.20;99.90;;;;;;5002594;28;20061;-76
2022/09/10 10:51:01;;;;;;;6.25;1.30;;;19.30;99.90;;;;;;5000193;28;20420;-75
2022/09/10 10:53:55;;;;;;;5.00;0.90;;;19.40;99.90;;;;;;5003957;28;20052;-76
2022/09/10 10:56:45;;;;;;;6.03;0.95;;;19.40;99.90;;;;;;5001017;28;20046;-76
2022/09/10 10:59:37;;;;;;;7.25;1.00;;;19.40;99.90;;;;;;5000118;28;20050;-76
2022/09/10 11:02:14;;;;;;;5.20;1.10;;;19.30;99.90;;;;;;5005077;28;20046;-76
2022/09/10 11:04:50;;;;;;;3.42;1.13;;;19.20;99.90;;;;;;5020081;28;20054;-76
2022/09/10 11:07:26;;;;;;;3.35;1.45;;;19.20;99.90;;;;;;5007261;28;20069;-76
2022/09/10 11:10:00;;;;;;;4.10;0.80;;;19.10;99.90;;;;;;5004275;28;20120;-75
2022/09/10 11:12:38;;;;;;;6.75;1.08;;;19.10;99.90;;;;;;5000962;28;20054;-75
2022/09/10 11:15:23;;;;;;;5.55;2.05;;;19.20;99.90;;;;;;5001932;28;20058;-76
2022/09/10 11:17:57;;;;;;;3.25;0.70;;;19.20;99.90;;;;;;5013172;28;20515;-75
2022/09/10 11:20:34;;;;;;;4.65;0.93;;;19.30;99.90;;;;;;5003229;28;20053;-76
2022/09/10 11:23:25;;;;;;;5.95;0.88;;;19.30;99.90;;;;;;5002053;28;20054;-76
2022/09/10 11:26:11;;;;;;;6.43;1.05;;;19.50;99.90;;;;;;5003836;28;20042;-76
2022/09/10 11:28:53;;;;;;;2.45;0.80;;;19.60;99.90;;;;;;5000537;28;20070;-77
2022/09/10 11:31:29;;;;;;;6.73;1.00;;;19.70;99.90;;;;;;5005946;28;20046;-77
2022/09/10 11:34:01;;;;;;;4.30;0.85;;;19.80;99.90;;;;;;5001428;28;20301;-77
2022/09/10 11:36:51;;;;;;;3.95;0.82;;;19.90;99.90;;;;;;4999936;28;20068;-76
2022/09/10 11:39:28;;;;;;;3.75;0.90;;;19.90;99.90;;;;;;5007407;28;20060;-76
2022/09/10 11:41:58;;;;;;;4.43;1.05;;;19.90;99.90;;;;;;4997609;28;20050;-76
2022/09/10 11:44:54;;;;;;;4.00;0.70;;;19.90;99.90;;;;;;5005136;28;20051;-77
2022/09/10 11:47:33;;;;;;;3.90;0.73;;;19.80;99.90;;;;;;5004762;28;20053;-76
2022/09/10 11:50:24;;;;;;;5.88;0.82;;;19.70;99.90;;;;;;5001764;28;20053;-77
2022/09/10 11:52:52;;;;;;;4.32;1.10;;;19.70;99.90;;;;;;5002061;28;20066;-77
2022/09/10 11:55:20;;;;;;;3.92;0.70;;;19.50;99.90;;;;;;4999802;28;20050;-77
2022/09/10 11:58:14;;;;;;;4.32;0.70;;;19.50;99.90;;;;;;5005571;28;20058;-76
2022/09/10 12:00:57;;;;;;;4.65;0.68;;;19.60;99.90;;;;;;5001468;28;20420;-76
2022/09/10 12:03:58;;;;;;;9.30;0.73;;;19.60;99.90;;;;;;4996791;28;20054;-77
2022/09/10 12:06:59;;;;;;;4.82;1.40;;;19.80;99.90;;;;;;5002466;28;20514;-76
2022/09/10 12:09:37;;;;;;;4.20;0.60;;;19.90;99.90;;;;;;4998804;28;20527;-76
2022/09/10 12:12:36;;;;;;;1.90;0.50;;;20.00;99.90;;;;;;5002892;28;20053;-76
2022/09/10 12:15:21;;;;;;;2.42;0.70;;;20.00;99.90;;;;;;4997955;28;20071;-77
2022/09/10 12:17:58;;;;;;;4.57;0.80;;;20.10;99.90;;;;;;5003608;28;20415;-77
2022/09/10 12:20:32;;;;;;;2.83;0.60;;;20.10;99.90;;;;;;5008073;28;20050;-77
2022/09/10 12:22:59;;;;;;;3.22;0.70;;;20.00;99.90;;;;;;5005845;28;20560;-76
2022/09/10 12:25:29;;;;;;;5.43;1.15;;;20.10;99.90;;;;;;4997134;28;20050;-77
2022/09/10 12:28:04;;;;;;;3.25;0.80;;;20.10;99.90;;;;;;5003710;28;20452;-77
2022/09/10 12:30:32;;;;;;;4.57;0.98;;;20.20;99.90;;;;;;5005011;28;20125;-77
2022/09/10 12:33:26;;;;;;;2.95;0.60;;;20.30;99.90;;;;;;4999599;28;20405;-76
2022/09/10 12:35:53;;;;;;;6.13;1.20;;;20.40;99.90;;;;;;4991482;28;20046;-77
2022/09/10 12:38:46;;;;;;;2.42;0.60;;;20.50;99.90;;;;;;5003362;28;20050;-77
2022/09/10 12:41:35;;;;;;;6.60;0.70;;;20.50;99.90;;;;;;4996980;28;20413;-77
2022/09/10 12:44:37;;;;;;;6.18;0.68;;;20.60;99.90;;;;;;4997675;28;20061;-76
2022/09/10 12:47:16;;;;;;;3.08;0.68;;;20.70;99.90;;;;;;5003578;28;20100;-77
2022/09/10 12:49:54;;;;;;;4.90;0.63;;;20.80;99.90;;;;;;5009365;28;20042;-76
2022/09/10 12:52:41;;;;;;;3.65;0.77;;;20.70;99.90;;;;;;5001874;28;20054;-76
2022/09/10 12:55:58;;;;;;;3.17;0.68;;;20.60;99.90;;;;;;4999366;28;20501;-76
2022/09/10 12:58:57;;;;;;;4.78;1.50;;;20.50;99.90;;;;;;5006803;28;20066;-76
2022/09/10 13:01:45;;;;;;;4.30;1.10;;;20.50;99.90;;;;;;5010857;28;20100;-77
2022/09/10 13:04:23;;;;;;;3.72;0.68;;;20.50;99.90;;;;;;5011307;28;20050;-76
2022/09/10 13:06:53;;;;;;;3.25;0.55;;;20.50;99.90;;;;;;5008988;28;20558;-76
2022/09/10 13:09:33;;;;;;;2.13;0.93;;;20.50;99.90;;;;;;5008999;28;20052;-77
2022/09/10 13:12:05;;;;;;;3.60;0.60;;;20.60;99.90;;;;;;5008498;28;20050;-77
2022/09/10 13:14:38;;;;;;;3.30;0.60;;;20.60;99.90;;;;;;5010681;28;20057;-77
2022/09/10 13:17:05;;;;;;;2.60;0.80;;;20.60;99.90;;;;;;5001760;28;20046;-77
2022/09/10 13:19:35;;;;;;;2.35;0.73;;;20.60;99.90;;;;;;5001354;28;20077;-79